createdAt,value
2018-01-15T00:02:27.846Z,-0.60
2018-01-15T00:04:55.356Z,-0.60
2018-01-15T00:07:22.885Z,-0.60
2018-01-15T00:09:50.449Z,-0.60
2018-01-15T00:12:17.982Z,-0.60
2018-01-15T00:14:46.028Z,-0.60
2018-01-15T00:17:13.564Z,-0.60
2018-01-15T00:19:41.488Z,-0.60
2018-01-15T00:22:09.828Z,-0.60
2018-01-15T00:24:37.938Z,-0.60
2018-01-15T00:27:05.479Z,-0.50
2018-01-15T00:29:33.761Z,-0.50
2018-01-15T00:32:03.232Z,-0.50
2018-01-15T00:34:30.773Z,-0.50
2018-01-15T00:36:58.436Z,-0.50
2018-01-15T00:39:25.954Z,-0.40
2018-01-15T00:41:53.612Z,-0.40
2018-01-15T00:44:22.180Z,-0.40
2018-01-15T00:46:49.734Z,-0.50
2018-01-15T00:49:17.264Z,-0.50
2018-01-15T00:51:44.814Z,-0.60
2018-01-15T00:54:12.603Z,-0.60
2018-01-15T00:56:40.165Z,-0.60
2018-01-15T00:59:07.774Z,-0.60
2018-01-15T01:01:35.516Z,-0.60
2018-01-15T01:04:04.052Z,-0.70
2018-01-15T01:06:31.597Z,-0.70
2018-01-15T01:09:00.250Z,-0.70
2018-01-15T01:11:28.468Z,-0.80
2018-01-15T01:13:56.905Z,-0.70
2018-01-15T01:16:24.431Z,-0.80
2018-01-15T01:18:52.787Z,-0.80
2018-01-15T01:21:21.661Z,-0.70
2018-01-15T01:23:49.263Z,-0.80
2018-01-15T01:26:16.806Z,-0.80
2018-01-15T01:28:44.349Z,-0.70
2018-01-15T01:31:12.076Z,-0.80
2018-01-15T01:33:40.418Z,-0.70
2018-01-15T01:36:08.696Z,-0.70
2018-01-15T01:38:36.228Z,-0.70
2018-01-15T01:41:03.751Z,-0.70
2018-01-15T01:43:31.544Z,-0.70
2018-01-15T01:45:59.812Z,-0.70
2018-01-15T01:48:27.344Z,-0.70
2018-01-15T01:50:54.876Z,-0.70
2018-01-15T01:53:23.264Z,-0.70
2018-01-15T01:55:50.856Z,-0.70
2018-01-15T01:58:19.249Z,-0.80
2018-01-15T02:00:46.963Z,-0.80
2018-01-15T02:03:15.355Z,-0.80
2018-01-15T02:05:43.005Z,-0.90
2018-01-15T02:08:10.657Z,-0.90
2018-01-15T02:10:39.019Z,-0.90
2018-01-15T02:13:07.406Z,-1.00
2018-01-15T02:15:35.766Z,-0.90
2018-01-15T02:18:03.391Z,-0.90
2018-01-15T02:20:31.748Z,-0.90
2018-01-15T02:22:59.362Z,-0.90
2018-01-15T02:25:26.984Z,-0.90
2018-01-15T02:27:55.364Z,-0.80
2018-01-15T02:30:22.967Z,-0.90
2018-01-15T02:32:51.850Z,-0.90
2018-01-15T02:35:19.478Z,-0.90
2018-01-15T02:37:47.158Z,-0.90
2018-01-15T02:40:16.844Z,-0.90
2018-01-15T02:42:44.467Z,-0.90
2018-01-15T02:45:12.101Z,-0.90
2018-01-15T02:47:39.747Z,-0.90
2018-01-15T02:50:07.408Z,-0.90
2018-01-15T02:52:35.040Z,-0.90
2018-01-15T02:55:02.724Z,-0.80
2018-01-15T02:57:31.121Z,-0.80
2018-01-15T02:59:58.760Z,-0.90
2018-01-15T03:02:26.445Z,-0.90
2018-01-15T03:04:54.098Z,-0.90
2018-01-15T03:07:22.664Z,-0.90
2018-01-15T03:09:51.566Z,-0.90
2018-01-15T03:12:19.232Z,-0.90
2018-01-15T03:14:47.002Z,-0.90
2018-01-15T03:17:14.882Z,-1.00
2018-01-15T03:19:43.313Z,-1.00
2018-01-15T03:22:11.637Z,-1.10
2018-01-15T03:24:39.270Z,-1.00
2018-01-15T03:27:06.811Z,-1.00
2018-01-15T03:29:35.191Z,-1.10
2018-01-15T03:32:02.761Z,-1.10
2018-01-15T03:34:30.963Z,-1.10
2018-01-15T03:36:58.674Z,-1.10
2018-01-15T03:39:26.619Z,-1.00
2018-01-15T03:41:54.634Z,-0.90
2018-01-15T03:44:22.287Z,-0.70
2018-01-15T03:46:50.918Z,-0.60
2018-01-15T03:49:18.635Z,-0.50
2018-01-15T03:51:47.054Z,-0.40
2018-01-15T03:54:15.963Z,-0.30
2018-01-15T03:56:44.142Z,-0.30
2018-01-15T03:59:12.358Z,-0.30
2018-01-15T04:01:42.790Z,-0.10
2018-01-15T04:04:11.265Z,-0.10
2018-01-15T04:06:38.990Z,-0.10
2018-01-15T04:09:07.343Z,0.00
2018-01-15T04:11:34.967Z,0.00
2018-01-15T04:14:02.487Z,0.10
2018-01-15T04:16:30.901Z,0.20
2018-01-15T04:18:58.501Z,0.20
2018-01-15T04:21:27.088Z,0.20
2018-01-15T04:23:54.698Z,0.20
2018-01-15T04:26:23.493Z,0.30
2018-01-15T04:28:51.026Z,0.40
2018-01-15T04:31:18.558Z,0.50
2018-01-15T04:33:46.079Z,0.50
2018-01-15T04:36:14.407Z,0.60
2018-01-15T04:38:41.924Z,0.60
2018-01-15T04:41:10.225Z,0.60
2018-01-15T04:43:38.517Z,0.60
2018-01-15T04:46:06.831Z,0.60
2018-01-15T04:48:35.131Z,0.60
2018-01-15T04:51:03.437Z,0.50
2018-01-15T04:53:31.726Z,0.50
2018-01-15T04:56:00.034Z,0.50
2018-01-15T04:58:28.326Z,0.50
2018-01-15T05:00:57.383Z,0.50
2018-01-15T05:03:24.910Z,0.50
2018-01-15T05:05:52.433Z,0.60
2018-01-15T05:08:19.977Z,0.60
2018-01-15T05:10:47.499Z,0.60
2018-01-15T05:13:15.044Z,0.70
2018-01-15T05:15:43.339Z,0.70
2018-01-15T05:18:11.666Z,0.70
2018-01-15T05:20:39.194Z,0.70
2018-01-15T05:23:06.736Z,0.80
2018-01-15T05:25:34.250Z,0.70
2018-01-15T05:28:01.815Z,0.80
2018-01-15T05:30:29.330Z,0.80
2018-01-15T05:32:56.879Z,0.80
2018-01-15T05:35:25.157Z,0.80
2018-01-15T05:37:52.692Z,0.80
2018-01-15T05:40:20.206Z,0.90
2018-01-15T05:42:47.846Z,0.80
2018-01-15T05:45:15.366Z,0.90
2018-01-15T05:47:42.904Z,0.90
2018-01-15T05:50:11.204Z,0.90
2018-01-15T05:52:39.507Z,0.90
2018-01-15T05:55:07.023Z,0.90
2018-01-15T05:57:34.568Z,0.90
2018-01-15T06:00:02.090Z,0.80
2018-01-15T06:02:29.630Z,0.80
2018-01-15T06:04:57.158Z,0.90
2018-01-15T06:07:24.693Z,1.00
2018-01-15T06:09:52.211Z,1.00
2018-01-15T06:12:20.513Z,1.10
2018-01-15T06:14:48.812Z,1.10
2018-01-15T06:17:16.345Z,1.10
2018-01-15T06:19:43.867Z,1.20
2018-01-15T06:22:11.412Z,1.10
2018-01-15T06:24:38.955Z,1.20
2018-01-15T06:27:06.476Z,1.10
2018-01-15T06:29:34.836Z,1.10
2018-01-15T06:32:02.369Z,1.00
2018-01-15T06:34:30.735Z,1.10
2018-01-15T06:36:58.253Z,1.10
2018-01-15T06:39:25.791Z,1.10
2018-01-15T06:41:53.317Z,1.20
2018-01-15T06:44:20.860Z,1.20
2018-01-15T06:46:48.378Z,1.20
2018-01-15T06:49:15.923Z,1.20
2018-01-15T06:51:43.502Z,1.20
2018-01-15T06:54:11.050Z,1.20
2018-01-15T06:56:38.573Z,1.20
2018-01-15T06:59:06.120Z,1.10
2018-01-15T07:01:33.646Z,1.00
2018-01-15T07:04:01.199Z,1.00
2018-01-15T07:06:28.729Z,0.90
2018-01-15T07:08:56.292Z,0.90
2018-01-15T07:11:24.596Z,0.90
2018-01-15T07:13:52.906Z,0.80
2018-01-15T07:16:20.427Z,0.80
2018-01-15T07:18:47.972Z,0.90
2018-01-15T07:21:16.262Z,0.90
2018-01-15T07:23:43.797Z,0.90
2018-01-15T07:26:11.319Z,0.90
2018-01-15T07:28:38.849Z,1.00
2018-01-15T07:31:06.369Z,1.00
2018-01-15T07:33:33.918Z,1.10
2018-01-15T07:36:01.442Z,1.10
2018-01-15T07:38:28.986Z,1.20
2018-01-15T07:40:58.042Z,1.40
2018-01-15T07:43:26.326Z,1.40
2018-01-15T07:45:54.630Z,1.50
2018-01-15T07:48:22.154Z,1.50
2018-01-15T07:50:50.290Z,1.50
2018-01-15T07:53:17.806Z,1.60
2018-01-15T07:55:46.115Z,1.60
2018-01-15T07:58:14.402Z,1.60
2018-01-15T08:00:41.941Z,1.50
2018-01-15T08:03:09.477Z,1.50
2018-01-15T08:05:37.788Z,1.50
2018-01-15T08:08:06.073Z,1.50
2018-01-15T08:10:33.702Z,1.50
2018-01-15T08:13:01.688Z,1.60
2018-01-15T08:15:29.235Z,1.50
2018-01-15T08:17:58.273Z,1.60
2018-01-15T08:20:25.815Z,1.60
2018-01-15T08:22:53.347Z,1.70
2018-01-15T08:25:21.660Z,1.80
2018-01-15T08:27:49.941Z,1.90
2018-01-15T08:30:17.476Z,1.90
2018-01-15T08:32:45.006Z,2.00
2018-01-15T08:35:12.545Z,2.10
2018-01-15T08:37:40.069Z,2.20
2018-01-15T08:40:07.612Z,2.30
2018-01-15T08:42:35.138Z,2.30
2018-01-15T08:45:02.686Z,2.30
2018-01-15T08:47:30.266Z,2.40
2018-01-15T08:49:57.801Z,2.50
2018-01-15T08:52:25.330Z,2.60
2018-01-15T08:54:53.633Z,2.90
2018-01-15T08:57:21.913Z,3.00
2018-01-15T08:59:49.431Z,3.00
2018-01-15T09:02:16.970Z,3.20
2018-01-15T09:04:44.503Z,3.40
2018-01-15T09:07:12.047Z,3.50
2018-01-15T09:09:39.566Z,3.70
2018-01-15T09:12:07.103Z,3.80
2018-01-15T09:14:34.627Z,3.90
2018-01-15T09:17:02.173Z,4.00
2018-01-15T09:19:29.731Z,4.20
2018-01-15T09:21:58.045Z,4.20
2018-01-15T09:24:26.342Z,4.20
2018-01-15T09:26:54.983Z,4.10
2018-01-15T09:29:22.572Z,4.10
2018-01-15T09:31:50.196Z,4.10
2018-01-15T09:34:17.727Z,4.10
2018-01-15T09:36:46.057Z,4.20
2018-01-15T09:39:13.588Z,4.10
2018-01-15T09:41:41.138Z,4.20
2018-01-15T09:44:08.663Z,4.20
2018-01-15T09:46:36.204Z,4.10
2018-01-15T09:49:03.725Z,4.10
2018-01-15T09:51:31.267Z,4.20
2018-01-15T09:53:59.570Z,4.30
2018-01-15T09:56:27.855Z,4.30
2018-01-15T09:58:55.496Z,4.30
2018-01-15T10:01:23.023Z,4.30
2018-01-15T10:03:50.567Z,4.40
2018-01-15T10:06:18.086Z,4.40
2018-01-15T10:08:45.634Z,4.40
2018-01-15T10:11:13.154Z,4.50
2018-01-15T10:13:40.678Z,4.50
2018-01-15T10:16:08.232Z,4.60
2018-01-15T10:18:35.750Z,4.60
2018-01-15T10:21:03.292Z,4.60
2018-01-15T10:23:31.599Z,4.60
2018-01-15T10:25:59.142Z,4.60
2018-01-15T10:28:27.426Z,4.60
2018-01-15T10:30:54.982Z,4.60
2018-01-15T10:33:22.498Z,4.60
2018-01-15T10:35:50.015Z,4.70
2018-01-15T10:38:17.602Z,4.80
2018-01-15T10:40:45.206Z,4.80
2018-01-15T10:43:12.750Z,4.80
2018-01-15T10:45:41.045Z,4.90
2018-01-15T10:48:08.579Z,4.90
2018-01-15T10:50:36.117Z,4.90
2018-01-15T10:53:03.657Z,5.00
2018-01-15T10:55:31.184Z,5.00
2018-01-15T10:57:59.509Z,5.10
2018-01-15T11:00:32.610Z,5.00
2018-01-15T11:03:00.149Z,5.10
2018-01-15T11:05:27.679Z,5.30
2018-01-15T11:07:55.228Z,5.40
2018-01-15T11:10:22.745Z,5.40
2018-01-15T11:12:50.284Z,5.40
2018-01-15T11:15:17.806Z,5.40
2018-01-15T11:17:45.357Z,5.30
2018-01-15T11:20:13.647Z,5.20
2018-01-15T11:22:41.950Z,5.20
2018-01-15T11:25:10.335Z,5.10
2018-01-15T11:27:37.898Z,5.10
2018-01-15T11:30:07.491Z,5.00
2018-01-15T11:32:35.932Z,4.90
2018-01-15T11:35:03.468Z,4.90
2018-01-15T11:37:32.411Z,4.80
2018-01-15T11:40:00.071Z,4.80
2018-01-15T11:42:27.600Z,4.80
2018-01-15T11:44:55.133Z,4.90
2018-01-15T11:47:23.368Z,5.00
2018-01-15T11:49:50.900Z,5.10
2018-01-15T11:52:19.106Z,5.20
2018-01-15T11:54:46.649Z,5.30
2018-01-15T11:57:14.352Z,5.50
2018-01-15T11:59:42.110Z,5.80
2018-01-15T12:02:09.805Z,6.00
2018-01-15T12:04:37.367Z,6.10
2018-01-15T12:07:07.494Z,6.20
2018-01-15T12:09:35.702Z,6.20
2018-01-15T12:12:03.313Z,6.30
2018-01-15T12:14:31.520Z,6.30
2018-01-15T12:16:59.130Z,6.30
2018-01-15T12:19:27.940Z,6.50
2018-01-15T12:21:55.469Z,6.50
2018-01-15T12:24:23.572Z,6.50
2018-01-15T12:26:51.189Z,6.60
2018-01-15T12:29:19.530Z,6.70
2018-01-15T12:31:47.076Z,6.70
2018-01-15T12:34:14.637Z,6.70
2018-01-15T12:36:43.262Z,6.70
2018-01-15T12:39:11.636Z,6.70
2018-01-15T12:41:39.150Z,6.80
2018-01-15T12:44:07.449Z,7.00
2018-01-15T12:46:34.960Z,7.00
2018-01-15T12:49:02.781Z,7.10
2018-01-15T12:51:30.303Z,7.20
2018-01-15T12:53:57.813Z,7.30
2018-01-15T12:56:25.353Z,7.30
2018-01-15T12:58:52.861Z,7.30
2018-01-15T13:01:20.385Z,7.30
2018-01-15T13:03:47.892Z,7.20
2018-01-15T13:06:20.207Z,7.30
2018-01-15T13:09:04.573Z,7.30
2018-01-15T13:11:34.321Z,7.30
2018-01-15T13:14:02.039Z,7.30
2018-01-15T13:16:30.445Z,7.30
2018-01-15T13:18:58.098Z,7.20
2018-01-15T13:21:26.156Z,7.30
2018-01-15T13:23:53.712Z,7.20
2018-01-15T13:26:22.155Z,7.20
2018-01-15T13:28:50.438Z,7.10
2018-01-15T13:31:19.796Z,7.10
2018-01-15T13:33:48.082Z,7.10
2018-01-15T13:36:15.617Z,7.10
2018-01-15T13:38:43.128Z,7.10
2018-01-15T13:41:10.685Z,7.00
2018-01-15T13:43:38.969Z,6.90
2018-01-15T13:46:06.509Z,6.90
2018-01-15T13:48:34.015Z,6.90
2018-01-15T13:51:05.714Z,6.80
2018-01-15T13:53:33.577Z,6.80
2018-01-15T13:56:02.282Z,6.80
2018-01-15T13:58:29.920Z,6.80
2018-01-15T14:00:57.444Z,6.70
2018-01-15T14:03:25.726Z,6.70
2018-01-15T14:05:54.020Z,6.60
2018-01-15T14:08:21.534Z,6.60
2018-01-15T14:10:49.070Z,6.60
2018-01-15T14:13:16.576Z,6.60
2018-01-15T14:15:45.734Z,6.70
2018-01-15T14:18:13.601Z,6.70
2018-01-15T14:20:41.198Z,6.70
2018-01-15T14:23:09.847Z,6.70
2018-01-15T14:25:37.571Z,6.70
2018-01-15T14:28:07.035Z,6.60
2018-01-15T14:30:35.322Z,6.60
2018-01-15T14:33:03.784Z,6.50
2018-01-15T14:35:31.374Z,6.50
2018-01-15T14:37:58.967Z,6.40
2018-01-15T14:40:27.047Z,6.30
2018-01-15T14:42:54.641Z,6.20
2018-01-15T14:45:22.408Z,6.20
2018-01-15T14:47:49.983Z,6.10
2018-01-15T14:50:18.465Z,6.00
2018-01-15T14:52:47.057Z,6.00
2018-01-15T14:55:14.714Z,6.00
2018-01-15T14:57:42.371Z,5.90
2018-01-15T15:00:10.958Z,5.90
2018-01-15T15:02:39.449Z,5.80
2018-01-15T15:05:06.986Z,5.80
2018-01-15T15:07:35.779Z,5.80
2018-01-15T15:10:03.319Z,5.70
2018-01-15T15:12:31.200Z,5.70
2018-01-15T15:14:59.090Z,5.60
2018-01-15T15:17:26.747Z,5.60
2018-01-15T15:19:55.060Z,5.60
2018-01-15T15:22:22.704Z,5.50
2018-01-15T15:24:50.287Z,5.50
2018-01-15T15:27:17.844Z,5.60
2018-01-15T15:29:46.172Z,5.50
2018-01-15T15:32:13.690Z,5.50
2018-01-15T15:34:41.438Z,5.50
2018-01-15T15:37:09.011Z,5.50
2018-01-15T15:39:37.307Z,5.60
2018-01-15T15:42:05.623Z,5.60
2018-01-15T15:44:33.150Z,5.60
2018-01-15T15:47:00.799Z,5.60
2018-01-15T15:49:28.322Z,5.60
2018-01-15T15:51:55.878Z,5.60
2018-01-15T15:54:23.409Z,5.60
2018-01-15T15:56:51.699Z,5.70
2018-01-15T15:59:19.245Z,5.70
2018-01-15T16:01:46.762Z,5.70
2018-01-15T16:04:15.019Z,5.70
2018-01-15T16:06:42.591Z,5.70
2018-01-15T16:09:11.070Z,5.70
2018-01-15T16:11:38.589Z,5.70
2018-01-15T16:14:06.111Z,5.80
2018-01-15T16:16:34.907Z,5.70
2018-01-15T16:19:02.445Z,5.70
2018-01-15T16:21:35.381Z,5.70
2018-01-15T16:24:03.675Z,5.70
2018-01-15T16:26:31.991Z,5.70
2018-01-15T16:28:59.515Z,5.70
2018-01-15T16:31:27.079Z,5.80
2018-01-15T16:33:54.604Z,5.80
2018-01-15T16:36:22.891Z,5.80
2018-01-15T16:38:51.298Z,5.70
2018-01-15T16:41:19.633Z,5.70
2018-01-15T16:43:47.224Z,5.70
2018-01-15T16:46:14.753Z,5.70
2018-01-15T16:48:42.298Z,5.60
2018-01-15T16:51:09.830Z,5.50
2018-01-15T16:53:37.355Z,5.50
2018-01-15T16:56:04.919Z,5.50
2018-01-15T16:58:32.448Z,5.50
2018-01-15T17:01:00.764Z,5.40
2018-01-15T17:03:28.295Z,5.50
2018-01-15T17:05:55.863Z,5.40
2018-01-15T17:08:23.383Z,5.40
2018-01-15T17:10:50.903Z,5.40
2018-01-15T17:13:18.446Z,5.40
2018-01-15T17:15:45.967Z,5.30
2018-01-15T17:18:13.550Z,5.30
2018-01-15T17:20:41.844Z,5.30
2018-01-15T17:23:10.176Z,5.30
2018-01-15T17:25:37.743Z,5.30
2018-01-15T17:28:06.026Z,5.40
2018-01-15T17:30:33.575Z,5.30
2018-01-15T17:33:01.103Z,5.30
2018-01-15T17:35:29.350Z,5.30
2018-01-15T17:37:57.639Z,5.40
2018-01-15T17:40:25.387Z,5.30
2018-01-15T17:42:52.906Z,5.30
2018-01-15T17:45:20.464Z,5.30
2018-01-15T17:47:48.006Z,5.30
2018-01-15T17:50:15.572Z,5.40
2018-01-15T17:52:43.114Z,5.40
2018-01-15T17:55:11.554Z,5.40
2018-01-15T17:57:39.108Z,5.50
2018-01-15T18:00:06.630Z,5.50
2018-01-15T18:02:34.173Z,5.60
2018-01-15T18:05:01.695Z,5.70
2018-01-15T18:07:29.260Z,5.70
2018-01-15T18:09:57.547Z,5.80
2018-01-15T18:12:25.843Z,5.80
2018-01-15T18:14:53.386Z,5.70
2018-01-15T18:17:20.909Z,5.80
2018-01-15T18:19:48.555Z,5.90
2018-01-15T18:22:16.075Z,5.90
2018-01-15T18:24:43.614Z,5.90
2018-01-15T18:27:11.202Z,5.90
2018-01-15T18:29:38.732Z,6.00
2018-01-15T18:32:06.282Z,6.00
2018-01-15T18:34:33.819Z,6.00
2018-01-15T18:37:01.363Z,6.00
2018-01-15T18:39:28.899Z,6.00
2018-01-15T18:41:57.311Z,6.10
2018-01-15T18:44:25.597Z,6.00
2018-01-15T18:46:53.113Z,6.00
2018-01-15T18:49:20.701Z,6.00
2018-01-15T18:51:48.966Z,5.90
2018-01-15T18:54:16.578Z,5.90
2018-01-15T18:56:44.108Z,5.90
2018-01-15T18:59:11.749Z,5.80
2018-01-15T19:01:39.268Z,5.80
2018-01-15T19:04:06.827Z,5.70
2018-01-15T19:06:34.347Z,5.70
2018-01-15T19:09:01.867Z,5.60
2018-01-15T19:11:30.952Z,5.60
2018-01-15T19:13:58.495Z,5.60
2018-01-15T19:16:26.043Z,5.60
2018-01-15T19:18:53.605Z,5.60
2018-01-15T19:21:21.152Z,5.50
2018-01-15T19:23:48.670Z,5.40
2018-01-15T19:26:16.225Z,5.40
2018-01-15T19:28:43.756Z,5.30
2018-01-15T19:31:11.494Z,5.30
2018-01-15T19:33:39.013Z,5.20
2018-01-15T19:39:14.525Z,5.10
2018-01-15T19:41:42.102Z,5.10
2018-01-15T19:44:16.169Z,5.10
2018-01-15T19:46:50.113Z,5.10
2018-01-15T19:49:23.302Z,5.10
2018-01-15T19:51:57.392Z,5.10
2018-01-15T19:54:30.559Z,5.10
2018-01-15T19:57:04.574Z,5.10
2018-01-15T19:59:37.957Z,5.10
2018-01-15T20:02:11.151Z,5.20
2018-01-15T20:04:44.444Z,5.20
2018-01-15T20:07:17.644Z,5.20
2018-01-15T20:09:50.859Z,5.20
2018-01-15T20:12:18.617Z,5.20
2018-01-15T20:14:46.148Z,5.20
2018-01-15T20:17:13.678Z,5.30
2018-01-15T20:19:41.265Z,5.20
2018-01-15T20:22:08.796Z,5.20
2018-01-15T20:24:36.393Z,5.20
2018-01-15T20:27:04.756Z,5.20
2018-01-15T20:29:32.500Z,5.20
2018-01-15T20:32:00.839Z,5.20
2018-01-15T20:34:28.408Z,5.20
2018-01-15T20:36:56.742Z,5.30
2018-01-15T20:39:25.598Z,5.30
2018-01-15T20:41:53.915Z,5.30
2018-01-15T20:44:22.249Z,5.30
2018-01-15T20:46:49.846Z,5.30
2018-01-15T20:49:17.375Z,5.20
2018-01-15T20:51:45.182Z,5.20
2018-01-15T20:54:13.481Z,5.30
2018-01-15T20:56:41.009Z,5.30
2018-01-15T20:59:09.370Z,5.40
2018-01-15T21:01:37.659Z,5.40
2018-01-15T21:04:05.263Z,5.40
2018-01-15T21:06:32.840Z,5.50
2018-01-15T21:09:00.437Z,5.50
2018-01-15T21:11:28.015Z,5.50
2018-01-15T21:13:55.785Z,5.40
2018-01-15T21:16:23.365Z,5.30
2018-01-15T21:18:50.936Z,5.40
2018-01-15T21:21:18.543Z,5.40
2018-01-15T21:23:46.100Z,5.40
2018-01-15T21:26:14.377Z,5.40
2018-01-15T21:28:41.903Z,5.40
2018-01-15T21:31:09.508Z,5.40
2018-01-15T21:33:37.043Z,5.40
2018-01-15T21:36:04.595Z,5.40
2018-01-15T21:38:32.178Z,5.40
2018-01-15T21:40:59.778Z,5.40
2018-01-15T21:43:27.371Z,5.50
2018-01-15T21:45:55.684Z,5.50
2018-01-15T21:48:23.240Z,5.50
2018-01-15T21:50:50.921Z,5.50
2018-01-15T21:53:18.489Z,5.50
2018-01-15T21:55:46.026Z,5.60
2018-01-15T21:58:13.743Z,5.50
2018-01-15T22:00:47.953Z,5.60
2018-01-15T22:03:16.263Z,5.60
2018-01-15T22:05:44.414Z,5.60
2018-01-15T22:08:11.935Z,5.60
2018-01-15T22:10:39.512Z,5.60
2018-01-15T22:13:07.030Z,5.60
2018-01-15T22:15:34.565Z,5.70
2018-01-15T22:18:02.110Z,5.70
2018-01-15T22:20:30.479Z,5.70
2018-01-15T22:22:58.764Z,5.90
2018-01-15T22:25:26.307Z,5.80
2018-01-15T22:27:53.826Z,5.90
2018-01-15T22:30:21.445Z,5.90
2018-01-15T22:32:49.006Z,6.00
2018-01-15T22:35:17.314Z,6.20
2018-01-15T22:37:44.825Z,6.20
2018-01-15T22:40:12.366Z,6.20
2018-01-15T22:42:39.891Z,6.20
2018-01-15T22:45:07.424Z,6.20
2018-01-15T22:47:34.942Z,6.20
2018-01-15T22:50:02.480Z,6.20
2018-01-15T22:52:31.652Z,6.20
2018-01-15T22:54:59.179Z,6.20
2018-01-15T22:57:26.688Z,6.20
2018-01-15T22:59:54.244Z,6.20
2018-01-15T23:02:21.750Z,6.20
2018-01-15T23:04:49.374Z,6.10
2018-01-15T23:07:16.898Z,6.20
2018-01-15T23:09:44.444Z,6.20
2018-01-15T23:12:11.983Z,6.10
2018-01-15T23:14:39.591Z,6.10
2018-01-15T23:17:07.913Z,6.10
2018-01-15T23:19:35.438Z,6.10
2018-01-15T23:22:02.976Z,6.20
2018-01-15T23:24:31.262Z,6.30
2018-01-15T23:26:59.621Z,6.30
2018-01-15T23:29:27.143Z,6.30
2018-01-15T23:31:54.704Z,6.30
2018-01-15T23:34:22.240Z,6.20
2018-01-15T23:36:49.792Z,6.20
2018-01-15T23:39:17.312Z,6.10
2018-01-15T23:41:44.897Z,6.10
2018-01-15T23:44:12.436Z,6.10
2018-01-15T23:46:41.496Z,6.00
2018-01-15T23:49:09.787Z,6.00
2018-01-15T23:51:38.110Z,6.00
2018-01-15T23:54:05.638Z,6.00
2018-01-15T23:56:33.266Z,6.00
2018-01-15T23:59:01.548Z,6.10
